Time;durP1;ratioP1;P1;durP2;ratioP2;P2;SDS_P1;SDS_P2;PMS_P1;PMS_P2;Temp;Humidity;BMP_temperature;BMP_pressure;BME280_temperature;BME280_humidity;BME280_pressure;Samples;Min_cycle;Max_cycle;Signal;HPM_P1;HPM_P2
2022/08/19 00:03:07;;;;;;;10.98;9.98;;;;;;;22.06;69.97;101165.88;6028091;29;20333;-74
2022/08/19 00:06:30;;;;;;;10.07;9.30;;;;;;;22.08;69.95;101157.41;6028963;29;21215;-74
2022/08/19 00:09:50;;;;;;;10.73;9.63;;;;;;;22.08;70.06;101157.41;6030355;29;20253;-75
2022/08/19 00:13:11;;;;;;;11.23;10.10;;;;;;;21.91;70.59;101148.66;6025666;29;20238;-74
2022/08/19 00:16:33;;;;;;;12.13;11.23;;;;;;;21.89;70.33;101141.69;6025008;29;20324;-75
2022/08/19 00:19:56;;;;;;;13.30;12.00;;;;;;;21.88;71.05;101154.56;6029163;29;20273;-75
2022/08/19 00:23:18;;;;;;;14.95;13.45;;;;;;;21.82;71.28;101154.53;6027988;29;20242;-75
2022/08/19 00:26:40;;;;;;;16.52;14.93;;;;;;;21.71;71.97;101155.91;6026536;29;20577;-75
2022/08/19 00:30:03;;;;;;;18.33;16.73;;;;;;;21.74;71.91;101163.72;6025066;29;20237;-75
2022/08/19 00:33:24;;;;;;;17.55;15.95;;;;;;;21.83;71.63;101161.72;6027582;29;20233;-75
2022/08/19 00:36:47;;;;;;;17.77;15.90;;;;;;;21.75;72.33;101154.47;6041451;29;20594;-74
2022/08/19 00:40:09;;;;;;;15.68;14.27;;;;;;;21.86;71.56;101151.16;6020173;29;20245;-76
2022/08/19 00:43:30;;;;;;;17.67;15.98;;;;;;;21.68;72.44;101147.22;6027770;29;20493;-75
2022/08/19 00:46:52;;;;;;;19.85;18.05;;;;;;;21.60;72.77;101145.50;6023519;29;20242;-74
2022/08/19 00:50:17;;;;;;;19.35;17.55;;;;;;;21.46;73.53;101143.72;6027311;29;20237;-74
2022/08/19 00:53:39;;;;;;;19.55;17.85;;;;;;;21.62;72.43;101137.06;6028099;29;20640;-76
2022/08/19 00:57:02;;;;;;;17.80;16.25;;;;;;;21.74;72.29;101135.44;6025008;29;20230;-74
2022/08/19 01:00:25;;;;;;;20.60;18.48;;;;;;;21.70;72.50;101134.16;6024942;29;20238;-75
2022/08/19 01:03:46;;;;;;;18.15;16.48;;;;;;;21.72;72.00;101135.63;6019991;29;20270;-73
2022/08/19 01:07:08;;;;;;;23.20;16.98;;;;;;;21.77;72.21;101141.38;6018732;29;20233;-74
2022/08/19 01:10:37;;;;;;;20.58;18.55;;;;;;;21.77;72.24;101140.53;6026763;29;20245;-75
2022/08/19 01:13:59;;;;;;;21.25;19.08;;;;;;;21.71;72.46;101141.34;6024940;29;20237;-75
2022/08/19 01:17:21;;;;;;;22.95;20.83;;;;;;;21.59;72.61;101135.56;6020239;29;20352;-75
2022/08/19 01:20:43;;;;;;;21.83;19.55;;;;;;;21.59;72.84;101134.72;6019541;29;21040;-74
2022/08/19 01:24:06;;;;;;;20.75;18.83;;;;;;;21.58;72.76;101128.38;6025365;29;20237;-75
2022/08/19 01:27:28;;;;;;;22.10;19.90;;;;;;;21.56;73.07;101124.13;6026594;29;20218;-75
2022/08/19 01:30:49;;;;;;;19.80;17.92;;;;;;;21.41;73.43;101135.22;6023278;29;20261;-75
2022/08/19 01:34:10;;;;;;;19.75;17.75;;;;;;;21.49;73.12;101133.19;6025255;29;22200;-75
2022/08/19 01:37:43;;;;;;;21.10;18.02;;;;;;;21.51;73.30;101127.47;6025337;29;20238;-74
2022/08/19 01:41:06;;;;;;;18.15;15.73;;;;;;;21.62;72.87;101117.84;6024264;29;20241;-74
2022/08/19 01:44:27;;;;;;;19.42;17.48;;;;;;;21.58;72.69;101114.66;6031667;29;20257;-74
2022/08/19 01:47:48;;;;;;;18.00;16.25;;;;;;;21.55;73.15;101111.47;6032419;29;20238;-76
2022/08/19 01:51:10;;;;;;;16.42;14.80;;;;;;;21.68;72.81;101106.06;6029299;29;20233;-75
2022/08/19 01:54:32;;;;;;;17.88;16.27;;;;;;;21.62;72.87;101096.75;6028879;29;20336;-74
2022/08/19 01:57:58;;;;;;;16.05;14.45;;;;;;;21.63;72.96;101106.69;6027369;29;20234;-74
2022/08/19 02:01:19;;;;;;;16.42;14.85;;;;;;;21.59;73.19;101105.38;6028870;29;20249;-73
2022/08/19 02:04:40;;;;;;;16.05;14.25;;;;;;;21.64;73.32;101105.63;6030135;29;20245;-75
2022/08/19 02:08:01;;;;;;;15.77;14.35;;;;;;;21.67;73.10;101105.22;6034846;29;20623;-75
2022/08/19 02:11:26;;;;;;;16.98;15.35;;;;;;;21.61;73.22;101103.25;6030476;29;20241;-74
2022/08/19 02:14:48;;;;;;;18.10;16.30;;;;;;;21.61;73.16;101097.78;6029088;29;20246;-74
2022/08/19 02:18:10;;;;;;;18.95;17.10;;;;;;;21.62;73.17;101088.50;6032636;29;20238;-74
2022/08/19 02:21:31;;;;;;;16.80;15.20;;;;;;;21.50;73.89;101068.19;6031845;29;20500;-74
2022/08/19 02:24:52;;;;;;;18.48;16.67;;;;;;;21.40;74.49;101067.72;6029088;29;20233;-73
2022/08/19 02:28:14;;;;;;;18.02;15.82;;;;;;;21.29;74.78;101063.63;6032338;29;20323;-75
2022/08/19 02:31:36;;;;;;;18.80;16.65;;;;;;;21.37;74.18;101079.06;6026032;29;20518;-73
2022/08/19 02:34:58;;;;;;;18.08;15.98;;;;;;;21.23;75.07;101083.63;6033717;29;20233;-75
2022/08/19 02:38:28;;;;;;;19.27;17.20;;;;;;;21.34;74.87;101090.47;6028653;29;20349;-75
2022/08/19 02:41:50;;;;;;;19.48;17.45;;;;;;;21.43;74.20;101090.09;6018816;29;20241;-75
2022/08/19 02:45:11;;;;;;;19.75;16.45;;;;;;;21.26;75.08;101094.19;6031081;29;20222;-74
2022/08/19 02:48:34;;;;;;;20.80;18.83;;;;;;;21.35;74.78;101089.41;6029393;29;20558;-74
2022/08/19 02:51:55;;;;;;;17.02;15.35;;;;;;;21.45;74.41;101085.25;6029439;29;20315;-75
2022/08/19 02:55:16;;;;;;;19.42;17.60;;;;;;;21.32;74.87;101084.28;6029209;29;20257;-75
2022/08/19 02:58:37;;;;;;;21.77;19.63;;;;;;;21.15;75.45;101094.72;6029779;29;22415;-75
2022/08/19 03:01:58;;;;;;;17.35;15.57;;;;;;;21.22;75.39;101084.66;6028122;29;20523;-74
2022/08/19 03:05:21;;;;;;;28.42;25.48;;;;;;;21.08;76.08;101095.72;6027135;29;20771;-75
2022/08/19 03:08:45;;;;;;;26.52;22.35;;;;;;;21.26;75.57;101091.44;6027582;29;20238;-74
2022/08/19 03:12:07;;;;;;;22.45;19.23;;;;;;;21.34;75.45;101101.44;6028604;29;20238;-75
2022/08/19 03:15:28;;;;;;;24.85;21.55;;;;;;;21.13;75.78;101094.09;6024374;29;20604;-75
2022/08/19 03:18:49;;;;;;;23.23;20.70;;;;;;;21.24;75.61;101093.53;6023692;29;20261;-74
2022/08/19 03:22:12;;;;;;;26.23;20.85;;;;;;;21.28;75.71;101093.97;6023181;29;20310;-75
2022/08/19 03:25:37;;;;;;;24.75;20.38;;;;;;;21.22;75.66;101090.16;6022712;29;20465;-73
2022/08/19 03:28:58;;;;;;;22.40;18.67;;;;;;;21.19;76.11;101096.06;6029662;29;20230;-74
2022/08/19 03:32:19;;;;;;;26.27;20.98;;;;;;;21.05;76.49;101090.66;6027064;29;20237;-74
2022/08/19 03:35:40;;;;;;;23.13;20.35;;;;;;;21.09;76.23;101092.78;6027967;29;20322;-73
2022/08/19 03:39:03;;;;;;;29.98;21.25;;;;;;;21.12;76.35;101086.91;6028317;29;20241;-74
2022/08/19 03:42:26;;;;;;;36.83;23.38;;;;;;;21.03;76.67;101082.63;6020625;29;20244;-74
2022/08/19 03:45:48;;;;;;;29.00;21.77;;;;;;;20.92;76.95;101096.00;6018753;29;20229;-74
2022/08/19 03:49:09;;;;;;;29.88;23.98;;;;;;;20.64;78.24;101104.16;6028925;29;20234;-74
2022/08/19 03:52:31;;;;;;;33.65;26.48;;;;;;;20.73;78.05;101108.47;6027994;29;20582;-74
2022/08/19 03:55:53;;;;;;;25.08;20.85;;;;;;;20.73;77.94;101113.97;6025796;29;20320;-75
2022/08/19 03:59:17;;;;;;;29.65;21.77;;;;;;;20.68;78.13;101119.16;6026868;29;20237;-74
2022/08/19 04:02:38;;;;;;;30.02;22.10;;;;;;;20.80;77.75;101125.81;6027566;29;20230;-75
2022/08/19 04:05:59;;;;;;;25.85;20.67;;;;;;;20.85;77.72;101133.47;6032006;29;20233;-74
2022/08/19 04:09:21;;;;;;;26.52;20.70;;;;;;;20.55;78.36;101132.72;6031868;29;20682;-75
2022/08/19 04:12:43;;;;;;;27.13;20.38;;;;;;;20.69;78.22;101127.19;6032907;29;20328;-75
2022/08/19 04:16:04;;;;;;;22.58;16.73;;;;;;;20.66;78.33;101126.75;6026213;29;20755;-75
2022/08/19 04:19:26;;;;;;;20.52;17.27;;;;;;;20.67;78.48;101131.19;6028241;29;20261;-75
2022/08/19 04:22:47;;;;;;;21.17;17.98;;;;;;;20.89;77.46;101149.31;6029642;29;20235;-75
2022/08/19 04:26:13;;;;;;;25.67;18.67;;;;;;;20.78;78.09;101151.75;6025343;29;20238;-75
2022/08/19 04:29:39;;;;;;;22.20;18.60;;;;;;;20.84;77.61;101148.22;6024883;29;20242;-75
2022/08/19 04:33:00;;;;;;;23.67;19.50;;;;;;;20.98;77.32;101161.00;6028029;29;20344;-75
2022/08/19 04:36:23;;;;;;;25.08;19.73;;;;;;;20.84;77.85;101157.28;6023114;29;20304;-75
2022/08/19 04:43:22;;;;;;;24.02;17.35;;;;;;;21.18;76.33;101157.41;6028674;29;20241;-75
2022/08/19 04:46:45;;;;;;;23.33;18.67;;;;;;;21.31;75.46;101153.94;6030405;29;20608;-75
2022/08/19 04:50:06;;;;;;;22.98;20.48;;;;;;;20.98;76.94;101155.53;6028819;29;20324;-74
2022/08/19 04:53:29;;;;;;;27.00;23.75;;;;;;;20.74;77.63;101156.75;6027441;29;20230;-74
2022/08/19 04:56:51;;;;;;;26.95;21.75;;;;;;;20.80;78.00;101163.38;6025123;29;20545;-73
2022/08/19 05:00:13;;;;;;;24.33;20.15;;;;;;;20.86;77.47;101163.41;6026208;29;20241;-74
2022/08/19 05:03:35;;;;;;;31.10;25.52;;;;;;;20.80;78.15;101163.38;6024790;29;20582;-74
2022/08/19 05:06:56;;;;;;;28.75;23.13;;;;;;;20.82;78.32;101164.84;6025536;29;20298;-74
2022/08/19 05:10:17;;;;;;;40.03;30.83;;;;;;;20.75;78.67;101163.09;6024164;29;20237;-74
2022/08/19 05:13:39;;;;;;;30.50;23.92;;;;;;;20.95;78.02;101162.22;6030045;29;22004;-75
2022/08/19 05:17:02;;;;;;;31.10;24.58;;;;;;;20.97;77.78;101178.47;6027259;29;20245;-76
2022/08/19 05:24:02;;;;;;;40.00;30.35;;;;;;;20.56;79.44;101175.53;6018754;29;20237;-76
2022/08/19 05:27:23;;;;;;;32.25;28.10;;;;;;;20.70;79.09;101180.97;6029393;29;20233;-75
2022/08/19 05:30:45;;;;;;;31.23;27.25;;;;;;;20.90;78.15;101186.66;6020641;29;20237;-74
2022/08/19 05:34:06;;;;;;;38.63;30.88;;;;;;;20.89;78.38;101182.22;6029184;29;20234;-74
2022/08/19 05:37:29;;;;;;;38.78;29.98;;;;;;;20.80;78.67;101188.03;6029827;29;20284;-74
2022/08/19 05:40:50;;;;;;;34.90;26.20;;;;;;;20.97;77.80;101179.34;6023322;29;20234;-74
2022/08/19 05:44:11;;;;;;;33.70;27.85;;;;;;;20.93;77.68;101179.91;6027705;29;20337;-71
2022/08/19 05:47:33;;;;;;;34.60;30.85;;;;;;;20.98;77.53;101177.44;6036414;29;20233;-75
2022/08/19 05:50:54;;;;;;;35.03;30.25;;;;;;;20.87;77.59;101177.97;6030978;29;20233;-72
2022/08/19 05:54:17;;;;;;;35.20;30.95;;;;;;;20.88;77.68;101175.03;6031113;29;20242;-71
2022/08/19 05:57:37;;;;;;;32.08;26.00;;;;;;;21.06;77.08;101177.34;6024303;29;21138;-73
2022/08/19 06:01:04;;;;;;;31.65;26.30;;;;;;;20.92;77.41;101180.97;6040065;29;20229;-75
2022/08/19 06:04:26;;;;;;;29.95;26.55;;;;;;;20.82;77.78;101174.97;6038093;29;20238;-75
2022/08/19 06:07:46;;;;;;;26.05;23.48;;;;;;;20.82;77.64;101172.25;6041905;29;20242;-74
2022/08/19 06:11:22;;;;;;;24.27;21.85;;;;;;;20.88;77.03;101176.94;6040030;29;20237;-74
2022/08/19 06:14:43;;;;;;;23.45;21.25;;;;;;;20.97;77.13;101179.34;6042790;29;20237;-73
2022/08/19 06:18:04;;;;;;;24.90;22.45;;;;;;;20.63;78.22;101179.22;6038832;29;20316;-75
2022/08/19 06:21:27;;;;;;;28.27;25.25;;;;;;;20.89;77.43;101184.09;6041009;29;20250;-79
2022/08/19 06:24:52;;;;;;;24.05;21.73;;;;;;;20.91;77.57;101187.50;6030484;29;20237;-76
2022/08/19 06:28:14;;;;;;;25.63;22.98;;;;;;;20.96;77.33;101185.88;6032538;29;20229;-72
2022/08/19 06:31:38;;;;;;;27.35;24.50;;;;;;;21.03;77.19;101181.31;6038294;29;20632;-73
2022/08/19 06:34:59;;;;;;;23.10;20.77;;;;;;;21.47;75.47;101181.91;6033630;29;20241;-76
2022/08/19 06:38:23;;;;;;;29.52;26.58;;;;;;;21.34;75.41;101180.97;6028621;29;20249;-70
2022/08/19 06:41:46;;;;;;;27.23;24.45;;;;;;;21.36;75.27;101168.75;6036810;29;20238;-69
2022/08/19 06:45:13;;;;;;;26.85;24.15;;;;;;;21.47;74.81;101161.84;6028989;29;20233;-70
2022/08/19 06:48:34;;;;;;;26.05;23.33;;;;;;;21.50;74.68;101164.22;6028980;29;20237;-72
2022/08/19 06:51:56;;;;;;;28.58;25.35;;;;;;;21.64;74.31;101167.88;6035768;29;20831;-72
2022/08/19 06:55:17;;;;;;;38.40;34.47;;;;;;;21.60;73.91;101167.44;6043010;29;20257;-76
2022/08/19 06:58:38;;;;;;;29.90;26.77;;;;;;;21.61;73.54;101174.63;6038730;29;20246;-72
2022/08/19 07:02:05;;;;;;;27.95;24.98;;;;;;;21.49;73.82;101168.00;6015166;29;20242;-74
2022/08/19 07:05:26;;;;;;;30.52;27.40;;;;;;;21.30;74.95;101171.44;6023442;29;20225;-73
2022/08/19 07:08:47;;;;;;;32.75;29.20;;;;;;;21.31;75.26;101179.47;6024840;29;20234;-73
2022/08/19 07:12:10;;;;;;;28.00;25.27;;;;;;;21.48;75.39;101169.91;6026419;29;20234;-76
2022/08/19 07:15:31;;;;;;;35.78;27.60;;;;;;;21.73;74.66;101173.03;6025973;29;22180;-71
2022/08/19 07:18:55;;;;;;;27.73;24.77;;;;;;;21.83;73.53;101170.81;6023719;29;20237;-69
2022/08/19 07:22:15;;;;;;;29.40;26.20;;;;;;;21.46;74.82;101174.72;6024426;29;20558;-72
2022/08/19 07:25:37;;;;;;;29.35;26.25;;;;;;;21.53;74.26;101172.03;6024012;29;20325;-72
2022/08/19 07:29:01;;;;;;;28.13;25.08;;;;;;;21.89;73.59;101188.34;6025452;29;20230;-70
2022/08/19 07:32:22;;;;;;;27.20;23.08;;;;;;;22.08;72.50;101180.25;6030334;29;20360;-71
2022/08/19 07:35:44;;;;;;;20.95;18.92;;;;;;;21.82;73.48;101193.81;6029328;29;20333;-71
2022/08/19 07:39:10;;;;;;;22.85;20.60;;;;;;;21.60;74.29;101205.00;6026865;29;20234;-72
2022/08/19 07:42:31;;;;;;;22.42;19.48;;;;;;;21.63;74.18;101210.97;6033834;29;20233;-73
2022/08/19 07:45:56;;;;;;;20.55;18.40;;;;;;;21.22;75.24;101204.47;6028539;29;20329;-70
2022/08/19 07:49:19;;;;;;;22.98;20.63;;;;;;;21.45;74.82;101205.97;6037500;29;20536;-71
2022/08/19 07:52:44;;;;;;;21.02;18.45;;;;;;;21.45;74.57;101216.09;6033296;29;20234;-78
2022/08/19 07:56:06;;;;;;;17.73;16.10;;;;;;;21.51;74.71;101218.03;6035113;29;20249;-72
2022/08/19 07:59:28;;;;;;;23.95;18.25;;;;;;;21.53;74.02;101220.59;6027622;29;20237;-71
2022/08/19 08:02:49;;;;;;;23.27;20.42;;;;;;;21.68;74.31;101229.56;6018265;29;20359;-73
2022/08/19 08:09:50;;;;;;;16.65;13.25;;;;;;;21.63;73.45;101238.41;6031056;29;20226;-71
2022/08/19 08:13:11;;;;;;;16.00;14.48;;;;;;;21.53;73.63;101242.56;6017993;29;20233;-70
2022/08/19 08:16:34;;;;;;;17.67;15.88;;;;;;;21.34;74.63;101236.66;6026237;29;20250;-71
2022/08/19 08:19:56;;;;;;;14.52;13.20;;;;;;;21.53;73.82;101240.63;6028521;29;20501;-71
2022/08/19 08:23:25;;;;;;;17.05;15.30;;;;;;;21.31;74.37;101242.56;6029898;29;20625;-73
2022/08/19 08:26:47;;;;;;;14.75;12.57;;;;;;;21.41;74.41;101244.97;6027631;29;20238;-73
2022/08/19 08:30:09;;;;;;;14.93;12.18;;;;;;;21.39;74.52;101249.81;6033317;29;20245;-76
2022/08/19 08:33:30;;;;;;;13.50;12.23;;;;;;;21.30;75.22;101254.56;6027271;29;20234;-70
2022/08/19 08:36:52;;;;;;;17.38;14.68;;;;;;;21.59;73.60;101253.56;6033849;29;20798;-76
2022/08/19 08:40:20;;;;;;;17.58;15.00;;;;;;;21.37;74.24;101260.97;6033794;29;20241;-74
2022/08/19 08:43:46;;;;;;;13.75;12.45;;;;;;;21.56;74.24;101253.13;6033496;29;20257;-73
2022/08/19 08:47:15;;;;;;;15.80;14.05;;;;;;;21.83;72.89;101255.06;6036908;29;20234;-73
2022/08/19 08:50:43;;;;;;;16.45;14.75;;;;;;;21.65;73.26;101257.41;6037435;29;20234;-74
2022/08/19 08:54:07;;;;;;;17.20;15.38;;;;;;;21.92;72.58;101251.97;6031798;29;20230;-73
2022/08/19 08:57:36;;;;;;;16.95;15.45;;;;;;;21.84;72.71;101254.03;6036129;29;20629;-75
2022/08/19 09:00:58;;;;;;;15.43;13.70;;;;;;;21.98;72.43;101255.81;6038931;29;20241;-73
2022/08/19 09:04:20;;;;;;;20.73;18.42;;;;;;;21.71;73.05;101257.47;6037766;29;20233;-73
2022/08/19 09:07:51;;;;;;;18.33;16.20;;;;;;;21.88;72.63;101255.31;6040430;29;20230;-79
2022/08/19 09:11:21;;;;;;;23.52;17.60;;;;;;;21.68;73.25;101257.00;6036614;29;20249;-75
2022/08/19 09:14:49;;;;;;;18.77;16.45;;;;;;;21.77;73.19;101259.44;6033731;29;20237;-75
2022/08/19 09:18:12;;;;;;;18.27;14.68;;;;;;;21.88;72.96;101258.06;6036719;29;20238;-72
2022/08/19 09:21:34;;;;;;;21.38;17.42;;;;;;;21.90;72.90;101266.94;6034477;29;20238;-72
2022/08/19 09:24:56;;;;;;;20.55;16.88;;;;;;;21.46;74.46;101268.00;6033637;29;20222;-73
2022/08/19 09:28:17;;;;;;;21.48;17.05;;;;;;;21.63;74.08;101265.00;6032173;29;20261;-71
2022/08/19 09:31:39;;;;;;;20.17;17.00;;;;;;;21.78;73.54;101269.34;6028921;29;20239;-70
2022/08/19 09:35:02;;;;;;;20.95;18.83;;;;;;;21.97;73.01;101262.31;6032370;29;20238;-67
2022/08/19 09:38:22;;;;;;;21.52;18.40;;;;;;;21.99;72.69;101252.00;6029838;29;20867;-67
2022/08/19 09:41:43;;;;;;;19.23;16.40;;;;;;;22.25;71.95;101266.75;6033721;29;20606;-67
2022/08/19 09:45:05;;;;;;;21.92;17.05;;;;;;;22.20;72.23;101251.91;6034096;29;20321;-68
2022/08/19 09:48:26;;;;;;;25.10;17.17;;;;;;;21.92;73.08;101259.34;6028662;29;20254;-67
2022/08/19 09:51:51;;;;;;;16.20;14.35;;;;;;;21.84;73.27;101260.34;6039355;29;20226;-67
2022/08/19 09:55:12;;;;;;;25.38;15.35;;;;;;;22.02;72.69;101248.84;6035440;29;21216;-67
2022/08/19 09:58:34;;;;;;;19.63;15.20;;;;;;;21.81;72.94;101263.47;6023314;29;20612;-67
2022/08/19 10:01:55;;;;;;;13.88;11.80;;;;;;;21.79;73.78;101264.72;6033292;29;20230;-68
2022/08/19 10:08:57;;;;;;;15.38;13.75;;;;;;;22.04;72.84;101255.84;6021857;29;20230;-67
2022/08/19 10:12:17;;;;;;;13.63;11.60;;;;;;;22.31;72.05;101261.47;6032953;29;20237;-68
2022/08/19 10:15:39;;;;;;;17.00;13.70;;;;;;;22.15;72.52;101263.50;6024087;29;20230;-68
2022/08/19 10:19:00;;;;;;;13.07;10.15;;;;;;;22.87;70.42;101263.91;6035655;29;20241;-67
2022/08/19 10:22:21;;;;;;;13.85;11.23;;;;;;;23.07;69.13;101268.59;6035328;29;20324;-68
2022/08/19 10:25:44;;;;;;;19.17;13.77;;;;;;;22.78;70.55;101270.63;6044366;29;20245;-67
2022/08/19 10:29:05;;;;;;;14.85;13.15;;;;;;;22.71;70.08;101269.75;6035327;29;20226;-69
2022/08/19 10:32:27;;;;;;;15.82;14.20;;;;;;;22.60;71.38;101266.75;6022791;29;21797;-68
2022/08/19 10:35:48;;;;;;;15.65;13.55;;;;;;;22.53;71.47;101268.59;6029427;29;20852;-68
2022/08/19 10:39:12;;;;;;;14.82;13.38;;;;;;;22.53;71.38;101258.44;6029760;29;20242;-69
2022/08/19 10:42:35;;;;;;;15.85;14.13;;;;;;;22.39;72.03;101269.56;6036938;29;22060;-68
2022/08/19 10:45:58;;;;;;;16.30;14.70;;;;;;;22.51;71.45;101265.22;6030989;29;20312;-67
2022/08/19 10:49:20;;;;;;;16.35;14.68;;;;;;;22.61;71.40;101258.28;6041574;29;20574;-67
2022/08/19 10:52:42;;;;;;;17.15;13.98;;;;;;;22.82;70.62;101252.66;6029260;29;20961;-68
2022/08/19 10:59:43;;;;;;;18.10;15.55;;;;;;;22.47;72.24;101263.88;6028690;29;20242;-70
2022/08/19 11:03:04;;;;;;;18.05;14.82;;;;;;;22.30;72.38;101262.56;6028380;29;20230;-68
2022/08/19 11:06:25;;;;;;;17.05;13.98;;;;;;;22.59;71.95;101256.81;6014661;29;20321;-67
2022/08/19 11:09:47;;;;;;;17.58;15.75;;;;;;;22.62;71.52;101257.25;6018786;29;20230;-68
2022/08/19 11:13:08;;;;;;;19.45;17.60;;;;;;;22.39;72.04;101255.81;6028429;29;20237;-68
2022/08/19 11:16:31;;;;;;;18.02;16.25;;;;;;;22.66;71.63;101265.91;6023898;29;20233;-69
2022/08/19 11:19:52;;;;;;;16.65;14.75;;;;;;;22.50;72.03;101269.84;6036058;29;20226;-69
2022/08/19 11:23:13;;;;;;;17.02;14.00;;;;;;;22.85;70.41;101257.75;6039428;29;20229;-69
2022/08/19 11:26:36;;;;;;;17.65;15.88;;;;;;;22.79;70.87;101260.47;6038706;29;20237;-69
2022/08/19 11:29:57;;;;;;;18.52;15.70;;;;;;;22.81;70.62;101261.97;6033028;29;20762;-68
2022/08/19 11:33:19;;;;;;;18.38;16.20;;;;;;;23.23;69.26;101257.19;6033200;29;20426;-69
2022/08/19 11:36:44;;;;;;;17.20;15.40;;;;;;;23.58;67.85;101244.97;6032770;29;21058;-70
2022/08/19 11:40:07;;;;;;;18.52;15.85;;;;;;;23.13;69.76;101241.13;6037459;29;20237;-69
2022/08/19 11:43:28;;;;;;;17.95;15.32;;;;;;;23.32;69.17;101240.31;6034249;29;20234;-68
2022/08/19 11:46:49;;;;;;;17.33;15.50;;;;;;;23.56;68.00;101242.44;6038124;29;20628;-69
2022/08/19 11:50:11;;;;;;;14.57;13.15;;;;;;;23.96;66.17;101234.16;6040015;29;20238;-69
2022/08/19 11:53:34;;;;;;;15.77;14.15;;;;;;;23.77;66.68;101235.88;6038238;29;20246;-69
2022/08/19 11:56:55;;;;;;;14.50;13.20;;;;;;;23.66;67.25;101240.09;6035694;29;20597;-68
2022/08/19 12:00:16;;;;;;;15.02;13.48;;;;;;;23.20;69.15;101241.13;6042817;29;20309;-68
2022/08/19 12:03:38;;;;;;;11.75;10.65;;;;;;;23.34;68.46;101242.88;6042467;29;20246;-70
2022/08/19 12:07:01;;;;;;;15.38;13.98;;;;;;;23.10;69.28;101255.28;6037043;29;20258;-68
2022/08/19 12:10:24;;;;;;;15.55;14.02;;;;;;;22.90;69.79;101246.13;6042605;29;20241;-68
2022/08/19 12:13:46;;;;;;;13.60;12.30;;;;;;;23.02;69.34;101248.06;6037679;29;20249;-69
2022/08/19 12:17:08;;;;;;;13.77;10.82;;;;;;;23.26;68.76;101240.28;6028164;29;20254;-68
2022/08/19 12:20:29;;;;;;;15.38;13.82;;;;;;;23.11;68.79;101245.97;6029305;29;20238;-69
2022/08/19 12:23:52;;;;;;;13.82;12.63;;;;;;;23.67;67.45;101241.81;6044412;29;20260;-68
2022/08/19 12:27:13;;;;;;;13.10;11.98;;;;;;;24.83;64.24;101243.66;6035029;29;20814;-69
2022/08/19 12:30:38;;;;;;;11.48;10.43;;;;;;;26.21;59.20;101237.06;6032358;29;20253;-69
2022/08/19 12:34:00;;;;;;;12.63;11.52;;;;;;;25.75;59.92;101232.81;6036906;29;20222;-68
2022/08/19 12:37:21;;;;;;;15.48;11.85;;;;;;;26.53;58.69;101235.84;6045707;29;20233;-69
2022/08/19 12:40:46;;;;;;;11.85;10.88;;;;;;;27.38;55.71;101215.28;6043514;29;21273;-69
2022/08/19 12:44:07;;;;;;;9.15;8.23;;;;;;;28.75;51.66;101222.94;6039424;29;20238;-69
2022/08/19 12:47:30;;;;;;;13.88;11.18;;;;;;;27.48;55.28;101224.69;6034489;29;20233;-69
2022/08/19 12:50:50;;;;;;;11.85;10.82;;;;;;;27.21;55.34;101222.56;6037165;29;20237;-69
2022/08/19 12:54:11;;;;;;;11.18;10.27;;;;;;;27.03;55.96;101223.47;6031278;29;20842;-70
2022/08/19 12:57:35;;;;;;;12.35;11.25;;;;;;;26.32;58.29;101226.09;6035534;29;20332;-69
2022/08/19 13:00:56;;;;;;;11.48;10.35;;;;;;;25.84;59.23;101216.81;6030078;29;20720;-69
2022/08/19 13:04:19;;;;;;;10.25;9.25;;;;;;;28.69;52.70;101223.94;6035474;29;20234;-77
2022/08/19 13:07:43;;;;;;;10.85;9.85;;;;;;;29.00;50.04;101220.66;6036320;29;24621;-74
2022/08/19 13:11:11;;;;;;;10.63;9.60;;;;;;;27.33;54.63;101221.50;6044320;29;20238;-74
2022/08/19 13:14:34;;;;;;;10.48;9.57;;;;;;;26.53;56.99;101214.56;6036503;29;20237;-74
2022/08/19 13:17:56;;;;;;;8.80;8.00;;;;;;;25.91;58.57;101223.94;6034428;29;20794;-74
2022/08/19 13:21:19;;;;;;;10.68;9.70;;;;;;;25.40;60.50;101215.03;6040740;29;20233;-75
2022/08/19 13:24:40;;;;;;;11.82;10.82;;;;;;;25.60;60.94;101218.50;6042199;29;20226;-75
2022/08/19 13:28:01;;;;;;;11.43;10.52;;;;;;;25.30;60.92;101211.94;6039371;29;20234;-75
2022/08/19 13:35:05;;;;;;;12.73;11.45;;;;;;;25.66;59.61;101216.78;6047859;29;20599;-74
2022/08/19 13:38:26;;;;;;;9.35;8.55;;;;;;;26.22;58.14;101198.16;6038609;29;20271;-74
2022/08/19 13:41:49;;;;;;;10.40;9.35;;;;;;;26.25;58.82;101203.19;6039560;29;20237;-74
2022/08/19 13:45:11;;;;;;;10.82;9.93;;;;;;;26.61;56.80;101196.78;6034814;29;20233;-74
2022/08/19 13:48:34;;;;;;;11.13;10.18;;;;;;;26.15;58.11;101200.13;6038662;29;20234;-67
2022/08/19 13:51:54;;;;;;;9.32;8.60;;;;;;;26.03;58.59;101196.41;6035811;29;20222;-73
2022/08/19 13:55:16;;;;;;;12.07;11.02;;;;;;;25.75;59.76;101196.91;6039354;29;20246;-72
2022/08/19 13:58:37;;;;;;;9.95;9.05;;;;;;;25.19;61.05;101202.47;6042196;29;20237;-72
2022/08/19 14:01:59;;;;;;;12.38;11.20;;;;;;;24.99;61.64;101203.69;6031764;29;21101;-72
2022/08/19 14:05:22;;;;;;;11.63;10.82;;;;;;;24.74;62.49;101205.53;6043052;29;20238;-72
2022/08/19 14:08:43;;;;;;;9.93;9.13;;;;;;;24.68;62.53;101209.97;6036506;29;20221;-72
2022/08/19 14:12:05;;;;;;;14.05;12.93;;;;;;;24.56;63.38;101203.44;6039145;29;20233;-73
2022/08/19 14:15:27;;;;;;;8.80;8.05;;;;;;;24.49;63.34;101197.97;6034558;29;20722;-72
2022/08/19 14:18:48;;;;;;;11.18;10.10;;;;;;;24.10;64.22;101195.38;6037852;29;20332;-72
2022/08/19 14:22:10;;;;;;;12.38;11.38;;;;;;;24.19;64.30;101190.47;6034783;29;20229;-73
2022/08/19 14:25:32;;;;;;;20.20;18.50;;;;;;;24.49;63.80;101199.91;6033598;29;20843;-72
2022/08/19 14:28:57;;;;;;;13.70;12.60;;;;;;;24.53;63.36;101199.22;6036136;29;20308;-72
2022/08/19 14:32:18;;;;;;;15.23;13.88;;;;;;;24.57;63.36;101196.88;6034740;29;20242;-74
2022/08/19 14:35:44;;;;;;;15.55;14.02;;;;;;;24.64;62.93;101199.63;6028866;29;20229;-73
2022/08/19 14:39:07;;;;;;;10.80;10.00;;;;;;;24.77;62.34;101205.91;6037300;29;20242;-73
2022/08/19 14:42:27;;;;;;;11.02;10.20;;;;;;;24.93;61.65;101201.81;6040916;29;20523;-73
2022/08/19 14:45:49;;;;;;;11.32;10.27;;;;;;;24.94;61.62;101196.06;6033065;29;20233;-74
2022/08/19 14:49:10;;;;;;;10.32;9.52;;;;;;;25.25;60.95;101201.56;6034005;29;20324;-74
2022/08/19 14:52:30;;;;;;;12.15;10.95;;;;;;;25.36;61.02;101200.00;6039192;29;20599;-74
2022/08/19 14:55:53;;;;;;;11.32;10.52;;;;;;;25.39;60.12;101200.38;6038652;29;20230;-74
2022/08/19 14:59:14;;;;;;;12.65;11.75;;;;;;;25.31;60.08;101205.34;6040154;29;20872;-73
2022/08/19 15:02:36;;;;;;;14.23;13.15;;;;;;;25.37;59.77;101208.03;6034021;29;20238;-72
2022/08/19 15:05:57;;;;;;;12.18;11.15;;;;;;;25.35;60.61;101206.56;6035026;29;20245;-73
2022/08/19 15:09:18;;;;;;;12.73;11.73;;;;;;;25.47;59.46;101220.56;6039771;29;20230;-74
2022/08/19 15:12:42;;;;;;;14.02;12.93;;;;;;;25.34;60.29;101215.94;6035394;29;20261;-74
2022/08/19 15:16:04;;;;;;;10.30;9.50;;;;;;;25.23;60.54;101225.78;6040192;29;20312;-74
2022/08/19 15:19:25;;;;;;;12.52;11.52;;;;;;;25.05;60.93;101220.19;6037606;29;20520;-74
2022/08/19 15:22:46;;;;;;;10.02;9.32;;;;;;;24.90;61.55;101224.31;6036108;29;20516;-73
2022/08/19 15:26:08;;;;;;;11.32;10.43;;;;;;;24.81;61.66;101229.25;6038963;29;20233;-73
2022/08/19 15:29:30;;;;;;;13.30;12.25;;;;;;;24.77;61.87;101225.22;6023399;29;20324;-72
2022/08/19 15:32:54;;;;;;;12.93;11.82;;;;;;;24.88;61.42;101227.31;6034144;29;20233;-73
2022/08/19 15:36:15;;;;;;;11.98;10.93;;;;;;;25.03;60.99;101233.34;6036137;29;20238;-74
2022/08/19 15:39:36;;;;;;;13.05;11.95;;;;;;;24.86;61.13;101234.94;6030959;29;20639;-73
2022/08/19 15:42:57;;;;;;;11.55;10.65;;;;;;;25.02;60.67;101231.66;6038687;29;20261;-73